createdAt,value
2018-11-03T00:00:55.879Z,1.30
2018-11-03T00:03:26.046Z,1.63
2018-11-03T00:05:55.672Z,1.33
2018-11-03T00:08:25.488Z,1.40
2018-11-03T00:10:55.051Z,1.30
2018-11-03T00:13:24.668Z,1.57
2018-11-03T00:15:54.095Z,1.67
2018-11-03T00:18:23.421Z,1.50
2018-11-03T00:20:52.751Z,1.52
2018-11-03T00:23:22.203Z,1.47
2018-11-03T00:25:51.703Z,1.80
2018-11-03T00:28:21.750Z,1.70
2018-11-03T00:30:51.280Z,1.60
2018-11-03T00:33:21.663Z,1.80
2018-11-03T00:35:50.990Z,1.40
2018-11-03T00:38:20.857Z,1.57
2018-11-03T00:40:50.395Z,1.70
2018-11-03T00:43:19.915Z,1.60
2018-11-03T00:45:49.542Z,1.87
2018-11-03T00:48:19.192Z,1.30
2018-11-03T00:50:48.707Z,1.73
2018-11-03T00:53:18.148Z,1.67
2018-11-03T00:55:47.673Z,1.60
2018-11-03T00:58:17.195Z,1.50
2018-11-03T01:00:46.672Z,1.43
2018-11-03T01:03:16.119Z,1.50
2018-11-03T01:05:45.904Z,1.57
2018-11-03T01:08:15.369Z,1.60
2018-11-03T01:10:44.842Z,1.83
2018-11-03T01:13:14.355Z,1.70
2018-11-03T01:15:43.888Z,1.70
2018-11-03T01:18:13.280Z,1.77
2018-11-03T01:20:42.811Z,2.00
2018-11-03T01:23:12.258Z,1.97
2018-11-03T01:25:41.807Z,2.20
2018-11-03T01:28:11.323Z,2.20
2018-11-03T01:30:40.862Z,1.63
2018-11-03T01:33:10.259Z,1.73
2018-11-03T01:35:39.848Z,1.87
2018-11-03T01:38:09.214Z,2.00
2018-11-03T01:40:38.622Z,2.00
2018-11-03T01:43:08.131Z,1.80
2018-11-03T01:45:37.654Z,1.85
2018-11-03T01:48:07.220Z,2.27
2018-11-03T01:50:36.611Z,1.92
2018-11-03T01:53:06.284Z,2.03
2018-11-03T01:55:36.255Z,2.00
2018-11-03T01:58:06.226Z,1.80
2018-11-03T02:00:37.010Z,1.53
2018-11-03T02:03:07.866Z,2.30
2018-11-03T02:05:37.482Z,1.95
2018-11-03T02:08:06.992Z,2.20
2018-11-03T02:10:36.392Z,2.07
2018-11-03T02:13:05.915Z,1.97
2018-11-03T02:15:35.269Z,1.98
2018-11-03T02:18:04.775Z,2.17
2018-11-03T02:20:34.119Z,2.00
2018-11-03T02:23:05.231Z,1.80
2018-11-03T02:25:36.111Z,2.10
2018-11-03T02:28:07.627Z,2.17
2018-11-03T02:30:38.852Z,2.03
2018-11-03T02:33:10.302Z,2.00
2018-11-03T02:35:41.902Z,2.30
2018-11-03T02:38:12.900Z,1.93
2018-11-03T02:40:44.147Z,2.13
2018-11-03T02:43:15.332Z,1.90
2018-11-03T02:45:46.663Z,1.80
2018-11-03T02:48:17.777Z,2.00
2018-11-03T02:50:48.921Z,1.80
2018-11-03T02:53:18.446Z,2.07
2018-11-03T02:55:47.923Z,1.63
2018-11-03T02:58:17.269Z,2.53
2018-11-03T03:00:47.400Z,1.97
2018-11-03T03:03:17.339Z,1.97
2018-11-03T03:05:46.724Z,1.70
2018-11-03T03:08:16.223Z,1.90
2018-11-03T03:10:45.720Z,2.00
2018-11-03T03:13:15.262Z,2.13
2018-11-03T03:15:44.823Z,1.93
2018-11-03T03:18:14.334Z,2.40
2018-11-03T03:20:43.901Z,1.90
2018-11-03T03:23:13.490Z,2.07
2018-11-03T03:25:43.040Z,2.13
2018-11-03T03:28:12.491Z,1.90
2018-11-03T03:30:41.895Z,1.93
2018-11-03T03:33:11.407Z,2.07
2018-11-03T03:35:40.924Z,1.93
2018-11-03T03:38:10.435Z,2.70
2018-11-03T03:40:39.940Z,1.70
2018-11-03T03:43:09.443Z,2.30
2018-11-03T03:45:38.958Z,2.33
2018-11-03T03:48:08.498Z,2.10
2018-11-03T03:50:38.370Z,2.37
2018-11-03T03:53:07.735Z,2.03
2018-11-03T03:55:37.258Z,1.80
2018-11-03T03:58:09.199Z,2.50
2018-11-03T04:00:39.117Z,1.53
2018-11-03T04:03:09.821Z,1.80
2018-11-03T04:05:41.009Z,1.72
2018-11-03T04:08:11.843Z,2.13
2018-11-03T04:10:42.578Z,2.62
2018-11-03T04:13:12.187Z,2.30
2018-11-03T04:15:41.581Z,1.97
2018-11-03T04:18:10.967Z,1.97
2018-11-03T04:20:40.338Z,1.80
2018-11-03T04:23:09.717Z,2.13
2018-11-03T04:25:39.230Z,1.70
2018-11-03T04:28:09.100Z,2.07
2018-11-03T04:30:38.636Z,2.00
2018-11-03T04:33:08.132Z,2.17
2018-11-03T04:35:37.699Z,1.80
2018-11-03T04:38:07.211Z,2.00
2018-11-03T04:40:36.719Z,1.90
2018-11-03T04:43:06.099Z,2.07
2018-11-03T04:45:35.846Z,2.33
2018-11-03T04:48:05.095Z,2.07
2018-11-03T04:50:34.600Z,1.73
2018-11-03T04:53:04.212Z,2.40
2018-11-03T04:55:33.500Z,2.57
2018-11-03T04:58:02.881Z,1.87
2018-11-03T05:00:32.498Z,1.80
2018-11-03T05:03:01.976Z,2.73
2018-11-03T05:05:31.415Z,1.72
2018-11-03T05:08:00.831Z,1.90
2018-11-03T05:10:30.475Z,2.33
2018-11-03T05:12:59.800Z,1.90
2018-11-03T05:15:29.570Z,2.42
2018-11-03T05:17:59.097Z,2.40
2018-11-03T05:20:28.503Z,2.13
2018-11-03T05:22:58.366Z,2.83
2018-11-03T05:25:27.929Z,1.97
2018-11-03T05:27:57.547Z,2.30
2018-11-03T05:30:27.099Z,2.37
2018-11-03T05:32:56.839Z,2.10
2018-11-03T05:35:26.356Z,2.40
2018-11-03T05:37:55.847Z,2.10
2018-11-03T05:40:25.243Z,2.27
2018-11-03T05:42:54.695Z,2.13
2018-11-03T05:45:24.079Z,2.00
2018-11-03T05:47:53.506Z,2.50
2018-11-03T05:50:22.964Z,2.23
2018-11-03T05:52:52.491Z,2.00
2018-11-03T05:55:22.685Z,1.97
2018-11-03T05:57:52.179Z,2.07
2018-11-03T06:00:24.079Z,1.83
2018-11-03T06:02:53.447Z,1.90
2018-11-03T06:05:22.795Z,2.10
2018-11-03T06:07:52.185Z,1.97
2018-11-03T06:10:22.647Z,2.10
2018-11-03T06:12:52.547Z,1.70
2018-11-03T06:15:22.802Z,2.30
2018-11-03T06:17:52.294Z,2.33
2018-11-03T06:20:22.593Z,2.17
2018-11-03T06:22:52.039Z,2.17
2018-11-03T06:25:21.490Z,2.37
2018-11-03T06:27:51.074Z,2.10
2018-11-03T06:30:20.475Z,1.80
2018-11-03T06:32:49.875Z,2.27
2018-11-03T06:35:19.491Z,1.80
2018-11-03T06:37:48.932Z,2.10
2018-11-03T06:40:18.479Z,1.63
2018-11-03T06:42:47.915Z,2.37
2018-11-03T06:45:17.445Z,2.27
2018-11-03T06:47:46.983Z,3.03
2018-11-03T06:50:16.333Z,2.07
2018-11-03T06:52:45.919Z,2.33
2018-11-03T06:55:15.316Z,2.23
2018-11-03T06:57:44.672Z,2.40
2018-11-03T07:00:14.177Z,2.30
2018-11-03T07:02:43.678Z,1.63
2018-11-03T07:05:13.237Z,2.60
2018-11-03T07:07:42.746Z,1.93
2018-11-03T07:10:12.300Z,1.70
2018-11-03T07:12:41.912Z,2.03
2018-11-03T07:15:11.175Z,2.30
2018-11-03T07:17:40.595Z,2.47
2018-11-03T07:20:11.910Z,2.20
2018-11-03T07:22:41.491Z,2.17
2018-11-03T07:25:11.500Z,2.40
2018-11-03T07:27:41.041Z,1.53
2018-11-03T07:30:12.011Z,1.80
2018-11-03T07:32:41.409Z,1.80
2018-11-03T07:35:10.948Z,1.73
2018-11-03T07:37:40.508Z,1.87
2018-11-03T07:40:10.614Z,1.83
2018-11-03T07:42:40.470Z,1.65
2018-11-03T07:45:09.970Z,1.67
2018-11-03T07:47:39.485Z,1.77
2018-11-03T07:50:11.194Z,1.60
2018-11-03T07:52:40.935Z,1.67
2018-11-03T07:55:12.020Z,1.70
2018-11-03T07:57:41.590Z,1.90
2018-11-03T08:00:12.930Z,1.90
2018-11-03T08:02:42.513Z,1.80
2018-11-03T08:05:12.543Z,2.30
2018-11-03T08:07:42.091Z,2.23
2018-11-03T08:10:12.179Z,1.83
2018-11-03T08:12:41.736Z,1.80
2018-11-03T08:15:11.662Z,2.43
2018-11-03T08:17:41.260Z,1.65
2018-11-03T08:20:11.723Z,1.80
2018-11-03T08:22:41.204Z,2.10
2018-11-03T08:25:10.721Z,1.90
2018-11-03T08:27:40.117Z,1.67
2018-11-03T08:30:11.800Z,1.90
2018-11-03T08:32:41.319Z,1.80
2018-11-03T08:35:12.132Z,1.60
2018-11-03T08:37:41.514Z,2.00
2018-11-03T08:40:12.028Z,1.60
2018-11-03T08:42:41.811Z,1.70
2018-11-03T08:45:11.802Z,1.57
2018-11-03T08:47:41.433Z,1.60
2018-11-03T08:50:11.899Z,1.40
2018-11-03T08:52:41.890Z,1.73
2018-11-03T08:55:12.531Z,1.40
2018-11-03T08:57:42.275Z,1.97
2018-11-03T09:00:15.838Z,1.90
2018-11-03T09:02:45.263Z,1.43
2018-11-03T09:05:14.660Z,1.80
2018-11-03T09:07:44.334Z,2.00
2018-11-03T09:10:14.754Z,2.20
2018-11-03T09:12:44.316Z,1.50
2018-11-03T09:15:14.415Z,1.77
2018-11-03T09:17:44.356Z,2.07
2018-11-03T09:20:14.242Z,1.90
2018-11-03T09:22:43.802Z,1.60
2018-11-03T09:25:14.514Z,1.40
2018-11-03T09:27:44.414Z,1.30
2018-11-03T09:30:17.773Z,2.07
2018-11-03T09:32:47.228Z,1.53
2018-11-03T09:35:17.139Z,1.60
2018-11-03T09:37:46.538Z,1.60
2018-11-03T09:40:17.907Z,1.67
2018-11-03T09:42:48.231Z,1.53
2018-11-03T09:45:17.739Z,1.53
2018-11-03T09:47:47.122Z,1.37
2018-11-03T09:50:16.599Z,1.43
2018-11-03T09:52:46.140Z,1.60
2018-11-03T09:55:17.119Z,1.30
2018-11-03T09:57:46.625Z,1.30
2018-11-03T10:00:18.412Z,1.20
2018-11-03T10:02:48.308Z,1.30
2018-11-03T10:05:17.824Z,1.20
2018-11-03T10:07:47.182Z,1.37
2018-11-03T10:10:17.674Z,1.17
2018-11-03T10:12:47.407Z,1.80
2018-11-03T10:15:18.486Z,1.40
2018-11-03T10:17:48.209Z,1.40
2018-11-03T10:20:17.731Z,1.40
2018-11-03T10:22:47.136Z,1.50
2018-11-03T10:25:18.882Z,1.57
2018-11-03T10:27:48.843Z,1.27
2018-11-03T10:30:18.827Z,1.37
2018-11-03T10:32:48.415Z,1.40
2018-11-03T10:35:17.819Z,1.47
2018-11-03T10:37:47.280Z,1.77
2018-11-03T10:40:18.011Z,1.20
2018-11-03T10:42:47.591Z,1.20
2018-11-03T10:45:17.443Z,1.00
2018-11-03T10:47:46.824Z,1.40
2018-11-03T10:50:17.907Z,1.53
2018-11-03T10:52:47.962Z,1.20
2018-11-03T10:55:18.536Z,1.47
2018-11-03T10:57:48.470Z,1.33
2018-11-03T11:00:24.472Z,1.20
2018-11-03T11:05:02.476Z,1.33
2018-11-03T11:07:37.169Z,1.40
2018-11-03T11:10:12.052Z,1.60
2018-11-03T11:12:45.612Z,1.40
2018-11-03T11:15:15.045Z,1.30
2018-11-03T11:17:44.487Z,1.57
2018-11-03T11:20:14.115Z,1.00
2018-11-03T11:22:43.552Z,1.43
2018-11-03T11:25:13.142Z,1.40
2018-11-03T11:27:42.532Z,1.50
2018-11-03T11:30:12.703Z,1.30
2018-11-03T11:32:42.222Z,1.20
2018-11-03T11:35:11.664Z,1.00
2018-11-03T11:37:41.234Z,1.27
2018-11-03T11:40:10.623Z,1.33
2018-11-03T11:42:39.985Z,1.27
2018-11-03T11:45:09.512Z,1.27
2018-11-03T11:47:39.495Z,1.30
2018-11-03T11:50:08.925Z,0.90
2018-11-03T11:52:38.284Z,1.17
2018-11-03T11:55:07.946Z,0.77
2018-11-03T11:57:37.274Z,1.30
2018-11-03T12:00:06.783Z,0.90
2018-11-03T12:02:36.435Z,1.23
2018-11-03T12:05:05.851Z,1.10
2018-11-03T12:07:35.282Z,0.80
2018-11-03T12:10:04.940Z,1.40
2018-11-03T12:12:34.411Z,1.17
2018-11-03T12:15:03.810Z,1.30
2018-11-03T12:17:33.315Z,1.27
2018-11-03T12:20:02.757Z,0.83
2018-11-03T12:22:32.333Z,1.07
2018-11-03T12:25:01.780Z,0.87
2018-11-03T12:27:31.207Z,1.20
2018-11-03T12:30:00.657Z,1.13
2018-11-03T12:32:30.011Z,1.20
2018-11-03T12:34:59.439Z,1.30
2018-11-03T12:37:28.994Z,0.93
2018-11-03T12:39:58.379Z,1.27
2018-11-03T12:42:27.848Z,1.03
2018-11-03T12:44:57.363Z,0.70
2018-11-03T12:47:26.919Z,0.90
2018-11-03T12:50:01.442Z,0.93
2018-11-03T12:52:31.642Z,0.93
2018-11-03T12:55:01.992Z,1.00
2018-11-03T12:57:31.567Z,1.30
2018-11-03T13:00:00.963Z,0.90
2018-11-03T13:02:30.497Z,1.20
2018-11-03T13:04:59.931Z,1.20
2018-11-03T13:07:29.348Z,1.00
2018-11-03T13:09:58.941Z,0.87
2018-11-03T13:12:28.363Z,1.23
2018-11-03T13:14:58.119Z,1.10
2018-11-03T13:17:27.562Z,0.83
2018-11-03T13:19:57.019Z,1.10
2018-11-03T13:22:26.647Z,0.90
2018-11-03T13:24:56.322Z,1.10
2018-11-03T13:27:25.778Z,0.90
2018-11-03T13:29:55.165Z,0.93
2018-11-03T13:32:24.663Z,0.97
2018-11-03T13:34:54.288Z,1.33
2018-11-03T13:37:23.762Z,0.90
2018-11-03T13:39:53.182Z,0.80
2018-11-03T13:42:22.703Z,0.90
2018-11-03T13:44:52.223Z,1.27
2018-11-03T13:47:22.321Z,1.00
2018-11-03T13:49:51.981Z,0.93
2018-11-03T13:52:22.125Z,1.10
2018-11-03T13:54:51.544Z,1.03
2018-11-03T13:57:22.015Z,0.90
2018-11-03T13:59:51.346Z,0.80
2018-11-03T14:02:21.779Z,1.23
2018-11-03T14:04:51.154Z,0.70
2018-11-03T14:07:20.508Z,0.90
2018-11-03T14:09:50.023Z,1.00
2018-11-03T14:12:19.575Z,1.10
2018-11-03T14:14:49.090Z,0.90
2018-11-03T14:17:18.740Z,0.80
2018-11-03T14:19:48.195Z,0.90
2018-11-03T14:22:17.697Z,1.00
2018-11-03T14:24:47.257Z,1.00
2018-11-03T14:27:16.803Z,1.47
2018-11-03T14:29:46.331Z,1.10
2018-11-03T14:32:15.680Z,1.70
2018-11-03T14:34:45.227Z,1.20
2018-11-03T14:37:14.675Z,1.90
2018-11-03T14:39:44.046Z,0.73
2018-11-03T14:42:13.556Z,1.07
2018-11-03T14:44:43.016Z,1.10
2018-11-03T14:47:12.431Z,0.90
2018-11-03T14:49:42.012Z,1.10
2018-11-03T14:52:11.572Z,0.90
2018-11-03T14:54:41.127Z,1.10
2018-11-03T14:57:10.651Z,0.80
2018-11-03T14:59:40.379Z,1.00
2018-11-03T15:02:09.912Z,0.83
2018-11-03T15:04:39.447Z,1.07
2018-11-03T15:07:09.023Z,1.10
2018-11-03T15:09:38.687Z,1.10
2018-11-03T15:12:08.655Z,1.03
2018-11-03T15:14:38.138Z,0.93
2018-11-03T15:17:07.987Z,0.80
2018-11-03T15:19:37.755Z,1.00
2018-11-03T15:22:07.665Z,0.53
2018-11-03T15:24:37.097Z,0.90
2018-11-03T15:27:08.289Z,1.00
2018-11-03T15:29:39.587Z,1.20
2018-11-03T15:32:10.973Z,0.70
2018-11-03T15:34:42.324Z,0.90
2018-11-03T15:37:13.732Z,0.73
2018-11-03T15:39:43.874Z,1.10
2018-11-03T15:42:13.426Z,1.00
2018-11-03T15:44:42.903Z,1.00
2018-11-03T15:47:12.353Z,0.90
2018-11-03T15:49:48.495Z,1.13
2018-11-03T15:52:18.132Z,1.10
2018-11-03T15:54:47.540Z,1.10
2018-11-03T15:57:16.938Z,1.03
2018-11-03T15:59:46.359Z,0.60
2018-11-03T16:02:15.877Z,0.70
2018-11-03T16:04:45.337Z,0.60
2018-11-03T16:07:14.727Z,0.90
2018-11-03T16:09:44.148Z,0.80
2018-11-03T16:12:13.737Z,0.70
2018-11-03T16:14:43.279Z,0.80
2018-11-03T16:17:12.778Z,0.97
2018-11-03T16:19:42.240Z,0.80
2018-11-03T16:22:11.817Z,0.87
2018-11-03T16:24:41.259Z,0.67
2018-11-03T16:27:10.671Z,1.00
2018-11-03T16:29:40.563Z,0.80
2018-11-03T16:32:10.040Z,1.10
2018-11-03T16:34:39.370Z,1.00
2018-11-03T16:37:08.751Z,1.13
2018-11-03T16:39:38.394Z,1.10
2018-11-03T16:42:07.916Z,0.80
2018-11-03T16:44:37.255Z,0.72
2018-11-03T16:47:07.363Z,0.90
2018-11-03T16:49:36.723Z,1.00
2018-11-03T16:52:06.173Z,0.70
2018-11-03T16:54:35.677Z,0.90
2018-11-03T16:57:05.279Z,1.27
2018-11-03T16:59:34.643Z,0.80
2018-11-03T17:02:04.414Z,0.90
2018-11-03T17:04:33.935Z,0.72
2018-11-03T17:07:04.528Z,1.10
2018-11-03T17:09:34.071Z,0.93
2018-11-03T17:12:03.511Z,0.97
2018-11-03T17:14:33.245Z,1.40
2018-11-03T17:17:02.805Z,1.20
2018-11-03T17:19:32.205Z,0.70
2018-11-03T17:22:01.617Z,1.30
2018-11-03T17:24:30.997Z,1.37
2018-11-03T17:27:00.335Z,1.30
2018-11-03T17:29:29.859Z,1.10
2018-11-03T17:31:59.452Z,1.60
2018-11-03T17:34:28.815Z,1.47
2018-11-03T17:36:58.163Z,1.53
2018-11-03T17:39:27.468Z,1.43
2018-11-03T17:41:56.789Z,1.30
2018-11-03T17:44:26.095Z,1.60
2018-11-03T17:46:57.009Z,1.37
2018-11-03T17:49:26.352Z,1.20
2018-11-03T17:51:55.894Z,1.30
2018-11-03T17:54:25.448Z,1.27
2018-11-03T17:56:54.803Z,1.30
2018-11-03T17:59:24.315Z,1.03
2018-11-03T18:01:53.756Z,1.40
2018-11-03T18:04:23.252Z,1.20
2018-11-03T18:06:52.786Z,1.20
2018-11-03T18:09:22.700Z,1.57
2018-11-03T18:11:52.956Z,1.40
2018-11-03T18:14:23.037Z,1.25
2018-11-03T18:16:52.471Z,1.67
2018-11-03T18:19:22.736Z,1.20
2018-11-03T18:21:52.256Z,1.40
2018-11-03T18:24:22.704Z,1.40
2018-11-03T18:26:52.044Z,1.13
2018-11-03T18:29:21.407Z,1.47
2018-11-03T18:31:50.761Z,1.40
2018-11-03T18:34:20.307Z,1.80
2018-11-03T18:36:49.654Z,1.07
2018-11-03T18:39:19.182Z,1.60
2018-11-03T18:41:49.125Z,1.30
2018-11-03T18:44:18.432Z,1.40
2018-11-03T18:46:48.487Z,1.57
2018-11-03T18:49:18.064Z,2.23
2018-11-03T18:51:47.442Z,1.43
2018-11-03T18:54:17.287Z,1.60
2018-11-03T18:56:46.839Z,1.32
2018-11-03T18:59:16.335Z,1.87
2018-11-03T19:01:45.861Z,1.30
2018-11-03T19:04:15.384Z,1.93
2018-11-03T19:06:44.951Z,1.55
2018-11-03T19:09:14.434Z,1.23
2018-11-03T19:11:43.795Z,1.30
2018-11-03T19:14:13.208Z,1.43
2018-11-03T19:16:42.567Z,1.37
2018-11-03T19:19:12.042Z,1.17
2018-11-03T19:21:41.351Z,1.60
2018-11-03T19:24:10.770Z,1.70
2018-11-03T19:26:40.318Z,1.67
2018-11-03T19:29:10.007Z,1.67
2018-11-03T19:31:39.379Z,1.67
2018-11-03T19:34:08.907Z,1.40
2018-11-03T19:36:38.326Z,2.27
2018-11-03T19:39:08.788Z,2.50
2018-11-03T19:41:38.188Z,1.97
2018-11-03T19:44:08.012Z,2.13
2018-11-03T19:46:37.429Z,2.00
2018-11-03T19:49:07.033Z,2.00
2018-11-03T19:51:36.899Z,2.33
2018-11-03T19:54:06.785Z,2.27
2018-11-03T19:56:36.684Z,2.10
2018-11-03T19:59:06.240Z,2.00
2018-11-03T20:01:36.097Z,2.10
2018-11-03T20:04:05.523Z,2.03
2018-11-03T20:06:35.147Z,2.00
2018-11-03T20:09:05.343Z,2.87
2018-11-03T20:11:34.692Z,2.33
2018-11-03T20:14:04.318Z,2.50
2018-11-03T20:16:33.933Z,2.70
2018-11-03T20:19:03.434Z,2.13
2018-11-03T20:21:33.132Z,1.65
2018-11-03T20:24:02.516Z,1.90
2018-11-03T20:26:31.839Z,2.20
2018-11-03T20:29:01.388Z,2.07
2018-11-03T20:31:30.722Z,2.90
2018-11-03T20:34:00.998Z,2.37
2018-11-03T20:36:30.499Z,2.25
2018-11-03T20:38:59.871Z,2.30
2018-11-03T20:41:29.382Z,2.57
2018-11-03T20:43:58.827Z,2.87
2018-11-03T20:46:28.267Z,2.30
2018-11-03T20:48:57.855Z,2.30
2018-11-03T20:51:27.300Z,2.60
2018-11-03T20:53:56.893Z,2.13
2018-11-03T20:56:26.238Z,2.00
2018-11-03T20:58:56.204Z,2.03
2018-11-03T21:01:25.567Z,2.03
2018-11-03T21:03:54.883Z,1.93
2018-11-03T21:06:24.695Z,2.47
2018-11-03T21:08:54.668Z,2.07
2018-11-03T21:11:24.576Z,2.10
2018-11-03T21:13:53.958Z,1.80
2018-11-03T21:16:23.493Z,1.73
2018-11-03T21:18:53.109Z,1.63
2018-11-03T21:21:23.211Z,1.92
2018-11-03T21:23:52.753Z,1.93
2018-11-03T21:26:23.171Z,2.03
2018-11-03T21:28:52.631Z,1.97
2018-11-03T21:31:21.996Z,1.73
2018-11-03T21:33:51.415Z,2.00
2018-11-03T21:36:20.799Z,1.90
2018-11-03T21:38:50.380Z,1.60
2018-11-03T21:41:19.972Z,1.70
2018-11-03T21:43:49.366Z,1.70
2018-11-03T21:46:18.766Z,1.77
2018-11-03T21:48:48.242Z,1.80
2018-11-03T21:51:17.925Z,2.00
2018-11-03T21:53:47.223Z,1.32
2018-11-03T21:56:16.611Z,1.67
2018-11-03T21:58:46.392Z,2.07
2018-11-03T22:01:15.937Z,1.50
2018-11-03T22:03:45.343Z,1.80
2018-11-03T22:06:14.855Z,1.53
2018-11-03T22:08:44.303Z,1.33
2018-11-03T22:11:13.923Z,1.83
2018-11-03T22:13:43.320Z,1.40
2018-11-03T22:16:12.851Z,1.63
2018-11-03T22:18:42.632Z,1.70
2018-11-03T22:21:12.160Z,1.40
2018-11-03T22:23:41.679Z,1.77
2018-11-03T22:26:12.187Z,1.57
2018-11-03T22:28:41.783Z,2.30
2018-11-03T22:31:11.300Z,1.47
2018-11-03T22:33:40.847Z,1.40
2018-11-03T22:36:10.591Z,1.83
2018-11-03T22:38:39.924Z,1.50
2018-11-03T22:41:09.232Z,1.57
2018-11-03T22:43:38.610Z,1.53
2018-11-03T22:46:08.147Z,1.67
2018-11-03T22:48:37.684Z,1.60
2018-11-03T22:51:11.328Z,1.73
2018-11-03T22:53:40.843Z,1.40
2018-11-03T22:56:10.335Z,1.63
2018-11-03T22:58:39.852Z,2.63
2018-11-03T23:01:09.336Z,1.80
2018-11-03T23:03:38.847Z,2.15
2018-11-03T23:06:08.191Z,1.20
2018-11-03T23:08:37.529Z,1.87
2018-11-03T23:11:07.171Z,2.73
2018-11-03T23:13:36.547Z,1.62
2018-11-03T23:16:06.469Z,1.77
2018-11-03T23:18:35.815Z,2.22
2018-11-03T23:21:05.287Z,2.57
2018-11-03T23:23:34.628Z,2.55
2018-11-03T23:26:04.589Z,2.80
2018-11-03T23:28:33.935Z,3.17
2018-11-03T23:31:03.373Z,2.57
2018-11-03T23:33:33.019Z,2.75
2018-11-03T23:36:02.509Z,2.07
2018-11-03T23:38:32.023Z,3.07
2018-11-03T23:41:01.635Z,2.40
2018-11-03T23:43:30.954Z,3.90
2018-11-03T23:46:00.515Z,3.90
2018-11-03T23:48:29.992Z,4.43
2018-11-03T23:50:59.470Z,4.53
2018-11-03T23:53:28.962Z,3.90
2018-11-03T23:55:58.427Z,4.40
2018-11-03T23:58:27.935Z,4.60
